createdAt,value
2022-08-27T00:00:15.941Z,8.20
2022-08-27T00:02:42.929Z,8.10
2022-08-27T00:05:13.550Z,8.30
2022-08-27T00:07:40.485Z,8.70
2022-08-27T00:10:07.880Z,7.40
2022-08-27T00:12:34.496Z,7.40
2022-08-27T00:15:01.512Z,7.67
2022-08-27T00:17:27.849Z,7.20
2022-08-27T00:19:54.157Z,7.00
2022-08-27T00:22:20.577Z,7.10
2022-08-27T00:24:48.991Z,6.80
2022-08-27T00:27:15.463Z,7.17
2022-08-27T00:29:41.752Z,8.07
2022-08-27T00:32:08.914Z,8.33
2022-08-27T00:34:35.986Z,9.20
2022-08-27T00:37:03.492Z,8.83
2022-08-27T00:39:48.250Z,9.37
2022-08-27T00:42:14.620Z,9.67
2022-08-27T00:44:40.898Z,10.00
2022-08-27T00:47:11.079Z,9.93
2022-08-27T00:49:40.617Z,17.30
2022-08-27T00:52:20.428Z,17.00
2022-08-27T00:54:46.793Z,20.30
2022-08-27T00:57:13.797Z,22.20
2022-08-27T00:59:41.927Z,26.90
2022-08-27T01:02:20.748Z,30.40
2022-08-27T01:04:50.067Z,31.90
2022-08-27T01:07:16.628Z,33.60
2022-08-27T01:09:43.629Z,35.57
2022-08-27T01:12:10.800Z,37.30
2022-08-27T01:14:37.788Z,36.63
2022-08-27T01:17:06.212Z,37.37
2022-08-27T01:19:38.585Z,37.13
2022-08-27T01:22:21.964Z,38.20
2022-08-27T01:24:50.860Z,37.90
2022-08-27T01:27:18.389Z,37.80
2022-08-27T01:29:45.357Z,36.83
2022-08-27T01:32:14.384Z,36.83
2022-08-27T01:34:41.238Z,34.63
2022-08-27T01:37:07.796Z,34.43
2022-08-27T01:39:35.298Z,33.50
2022-08-27T01:42:02.508Z,33.93
2022-08-27T01:44:52.198Z,31.50
2022-08-27T01:47:19.393Z,31.20
2022-08-27T01:49:46.416Z,31.63
2022-08-27T01:52:14.137Z,32.03
2022-08-27T01:54:40.648Z,32.90
2022-08-27T01:57:06.904Z,35.03
2022-08-27T01:59:39.679Z,33.33
2022-08-27T02:02:07.229Z,32.00
2022-08-27T02:04:33.819Z,31.53
2022-08-27T02:07:00.529Z,29.43
2022-08-27T02:09:26.810Z,28.87
2022-08-27T02:11:53.406Z,29.00
2022-08-27T02:14:20.327Z,28.93
2022-08-27T02:16:52.219Z,28.10
2022-08-27T02:19:19.189Z,28.80
2022-08-27T02:21:45.448Z,29.00
2022-08-27T02:24:11.740Z,24.17
2022-08-27T02:26:38.076Z,19.63
2022-08-27T02:29:04.742Z,16.90
2022-08-27T02:34:17.081Z,16.47
2022-08-27T02:36:43.793Z,16.50
2022-08-27T02:39:10.415Z,13.37
2022-08-27T02:41:36.808Z,12.43
2022-08-27T02:44:04.593Z,9.70
2022-08-27T02:46:37.417Z,8.30
2022-08-27T02:49:03.990Z,8.03
2022-08-27T02:51:30.333Z,6.97
2022-08-27T02:53:56.700Z,8.50
2022-08-27T02:56:23.316Z,8.90
2022-08-27T02:58:49.789Z,9.90
2022-08-27T03:01:16.489Z,9.47
2022-08-27T03:03:43.597Z,10.10
2022-08-27T03:06:09.862Z,9.13
2022-08-27T03:08:53.146Z,9.60
2022-08-27T03:11:20.255Z,8.80
2022-08-27T03:13:46.583Z,7.63
2022-08-27T03:16:12.930Z,7.03
2022-08-27T03:18:39.880Z,6.63
2022-08-27T03:21:08.085Z,6.97
2022-08-27T03:23:34.966Z,7.20
2022-08-27T03:26:02.724Z,8.17
2022-08-27T03:28:31.144Z,8.77
2022-08-27T03:31:01.166Z,8.37
2022-08-27T03:33:33.140Z,9.47
2022-08-27T03:35:59.701Z,9.17
2022-08-27T03:38:26.125Z,11.00
2022-08-27T03:40:52.888Z,12.43
2022-08-27T03:43:20.387Z,12.00
2022-08-27T03:46:00.437Z,12.53
2022-08-27T03:48:29.200Z,11.93
2022-08-27T03:50:55.685Z,12.50
2022-08-27T03:53:22.012Z,11.80
2022-08-27T03:55:48.359Z,11.57
2022-08-27T03:58:15.063Z,11.73
2022-08-27T04:00:41.703Z,10.47
2022-08-27T04:03:08.229Z,6.80
2022-08-27T04:05:34.684Z,5.70
2022-08-27T04:08:01.239Z,4.67
2022-08-27T04:10:27.693Z,4.57
2022-08-27T04:12:59.219Z,4.50
2022-08-27T04:15:26.157Z,4.60
2022-08-27T04:17:52.499Z,5.13
2022-08-27T04:20:35.064Z,5.30
2022-08-27T04:23:01.661Z,4.87
2022-08-27T04:25:28.324Z,4.40
2022-08-27T04:27:54.639Z,4.10
2022-08-27T04:30:20.980Z,3.90
2022-08-27T04:32:47.278Z,3.60
2022-08-27T04:35:13.571Z,3.03
2022-08-27T04:37:40.386Z,3.17
2022-08-27T04:40:07.153Z,2.87
2022-08-27T04:42:33.445Z,2.60
2022-08-27T04:44:59.736Z,2.80
2022-08-27T04:47:26.048Z,2.80
2022-08-27T04:49:52.321Z,2.60
2022-08-27T04:52:18.579Z,2.70
2022-08-27T04:54:45.007Z,2.90
2022-08-27T04:57:11.392Z,2.33
2022-08-27T04:59:38.416Z,2.50
2022-08-27T05:02:06.263Z,2.07
2022-08-27T05:04:34.269Z,2.20
2022-08-27T05:07:02.060Z,2.53
2022-08-27T05:09:28.400Z,3.40
2022-08-27T05:11:55.389Z,6.63
2022-08-27T05:14:23.430Z,2.43
2022-08-27T05:16:49.755Z,2.27
2022-08-27T05:19:16.099Z,2.53
2022-08-27T05:21:48.125Z,2.50
2022-08-27T05:24:14.782Z,2.67
2022-08-27T05:26:41.143Z,2.67
2022-08-27T05:29:07.481Z,2.60
2022-08-27T05:31:34.235Z,2.63
2022-08-27T05:34:01.261Z,2.43
2022-08-27T05:36:29.361Z,3.00
2022-08-27T05:38:56.356Z,2.60
2022-08-27T05:41:33.961Z,2.50
2022-08-27T05:44:07.718Z,2.80
2022-08-27T05:46:45.280Z,2.70
2022-08-27T05:49:11.628Z,2.90
2022-08-27T05:51:38.458Z,3.00
2022-08-27T05:54:08.811Z,3.00
2022-08-27T05:56:36.905Z,3.10
2022-08-27T05:59:22.616Z,3.30
2022-08-27T06:01:51.856Z,3.60
2022-08-27T06:04:20.418Z,4.23
2022-08-27T06:06:47.214Z,4.70
2022-08-27T06:09:15.326Z,6.40
2022-08-27T06:11:41.878Z,5.97
2022-08-27T06:14:11.536Z,5.83
2022-08-27T06:16:38.452Z,6.47
2022-08-27T06:19:06.048Z,6.50
2022-08-27T06:21:32.785Z,6.33
2022-08-27T06:23:59.604Z,6.70
2022-08-27T06:26:26.605Z,7.00
2022-08-27T06:28:53.279Z,6.60
2022-08-27T06:31:21.276Z,6.80
2022-08-27T06:33:47.632Z,7.17
2022-08-27T06:36:15.539Z,6.03
2022-08-27T06:38:44.896Z,6.60
2022-08-27T06:41:23.174Z,6.40
2022-08-27T06:43:50.393Z,6.60
2022-08-27T06:46:17.252Z,6.93
2022-08-27T06:48:45.001Z,6.43
2022-08-27T06:51:16.864Z,7.03
2022-08-27T06:53:43.910Z,7.37
2022-08-27T06:56:11.048Z,7.57
2022-08-27T06:58:37.371Z,8.53
2022-08-27T07:01:11.925Z,9.40
2022-08-27T07:03:38.264Z,7.97
2022-08-27T07:06:05.595Z,8.70
2022-08-27T07:08:32.016Z,8.93
2022-08-27T07:10:58.307Z,9.43
2022-08-27T07:13:24.997Z,8.37
2022-08-27T07:15:52.189Z,8.90
2022-08-27T07:18:18.547Z,9.57
2022-08-27T07:20:54.617Z,9.80
2022-08-27T07:23:21.570Z,10.17
2022-08-27T07:25:47.941Z,9.47
2022-08-27T07:28:14.849Z,9.37
2022-08-27T07:30:41.232Z,9.77
2022-08-27T07:33:07.512Z,9.63
2022-08-27T07:35:33.789Z,11.97
2022-08-27T07:38:00.239Z,13.20
2022-08-27T07:40:26.611Z,14.67
2022-08-27T07:43:11.572Z,13.50
2022-08-27T07:45:44.598Z,15.80
2022-08-27T07:48:11.382Z,16.30
2022-08-27T07:50:37.849Z,17.37
2022-08-27T07:53:04.134Z,17.43
2022-08-27T07:55:30.672Z,18.03
2022-08-27T07:57:57.012Z,17.13
2022-08-27T08:00:23.351Z,18.10
2022-08-27T08:02:49.939Z,17.43
2022-08-27T08:05:16.637Z,17.30
2022-08-27T08:07:42.947Z,17.50
2022-08-27T08:10:10.091Z,17.53
2022-08-27T08:12:37.372Z,17.03
2022-08-27T08:15:04.907Z,34.80
2022-08-27T08:17:32.330Z,17.47
2022-08-27T08:20:19.570Z,16.93
2022-08-27T08:22:45.116Z,17.20
2022-08-27T08:25:14.013Z,16.63
2022-08-27T08:27:41.673Z,16.43
2022-08-27T08:30:08.943Z,15.67
2022-08-27T08:32:35.372Z,15.83
2022-08-27T08:35:01.752Z,14.53
2022-08-27T08:37:28.096Z,14.90
2022-08-27T08:39:54.920Z,15.90
2022-08-27T08:42:28.117Z,18.53
2022-08-27T08:44:54.592Z,15.23
2022-08-27T08:47:30.419Z,15.33
2022-08-27T08:50:08.844Z,15.00
2022-08-27T08:52:35.393Z,15.40
2022-08-27T08:55:09.044Z,16.20
2022-08-27T08:57:40.735Z,15.97
2022-08-27T09:00:12.591Z,15.97
2022-08-27T09:02:39.612Z,16.07
2022-08-27T09:05:08.685Z,15.30
2022-08-27T09:07:41.020Z,13.67
2022-08-27T09:10:14.437Z,13.37
2022-08-27T09:12:41.469Z,11.73
2022-08-27T09:15:12.492Z,11.03
2022-08-27T09:17:40.207Z,10.43
2022-08-27T09:20:08.721Z,9.03
2022-08-27T09:23:21.847Z,9.10
2022-08-27T09:25:48.340Z,17.57
2022-08-27T09:28:34.829Z,7.73
2022-08-27T09:31:08.738Z,7.23
2022-08-27T09:33:44.558Z,6.37
2022-08-27T09:36:23.730Z,5.57
2022-08-27T09:39:02.229Z,5.30
2022-08-27T09:41:35.263Z,4.70
2022-08-27T09:44:06.965Z,4.40
2022-08-27T09:46:33.337Z,5.07
2022-08-27T09:49:09.853Z,5.43
2022-08-27T09:51:39.797Z,5.47
2022-08-27T09:54:08.045Z,12.50
2022-08-27T09:56:36.552Z,10.73
2022-08-27T09:59:05.069Z,5.47
2022-08-27T10:01:32.686Z,5.10
2022-08-27T10:04:10.162Z,5.07
2022-08-27T10:06:37.381Z,4.90
2022-08-27T10:09:07.076Z,4.97
2022-08-27T10:11:40.596Z,5.10
2022-08-27T10:14:14.544Z,4.93
2022-08-27T10:17:02.766Z,5.40
2022-08-27T10:19:35.272Z,5.80
2022-08-27T10:22:34.157Z,15.77
2022-08-27T10:25:19.507Z,10.40
2022-08-27T10:28:04.997Z,5.63
2022-08-27T10:30:49.640Z,5.67
2022-08-27T10:33:23.714Z,5.37
2022-08-27T10:35:58.068Z,5.60
2022-08-27T10:38:30.315Z,5.40
2022-08-27T10:41:09.604Z,5.67
2022-08-27T10:43:39.101Z,5.90
2022-08-27T10:46:08.261Z,5.90
2022-08-27T10:48:38.705Z,5.97
2022-08-27T10:51:08.374Z,5.73
2022-08-27T10:53:43.113Z,6.03
2022-08-27T10:56:28.495Z,5.87
2022-08-27T10:59:15.035Z,5.30
2022-08-27T11:01:48.926Z,5.30
2022-08-27T11:04:18.508Z,5.17
2022-08-27T11:06:57.049Z,4.90
2022-08-27T11:09:38.384Z,5.70
2022-08-27T11:12:14.158Z,5.60
2022-08-27T11:15:00.262Z,12.20
2022-08-27T11:17:37.728Z,6.07
2022-08-27T11:20:19.036Z,4.97
2022-08-27T11:22:47.924Z,6.40
2022-08-27T11:25:26.470Z,5.67
2022-08-27T11:27:55.098Z,5.87
2022-08-27T11:30:41.983Z,5.63
2022-08-27T11:33:13.875Z,6.77
2022-08-27T11:36:13.216Z,5.93
2022-08-27T11:38:44.122Z,6.50
2022-08-27T11:41:29.311Z,6.10
2022-08-27T11:44:03.505Z,6.60
2022-08-27T11:46:40.845Z,6.93
2022-08-27T11:49:07.253Z,5.90
2022-08-27T11:51:37.810Z,7.40
2022-08-27T11:54:09.475Z,12.13
2022-08-27T11:56:41.520Z,9.53
2022-08-27T11:59:22.863Z,7.03
2022-08-27T12:02:09.719Z,6.70
2022-08-27T12:04:40.935Z,7.30
2022-08-27T12:07:13.306Z,7.97
2022-08-27T12:10:02.990Z,7.00
2022-08-27T12:12:32.427Z,6.80
2022-08-27T12:15:04.832Z,6.93
2022-08-27T12:17:38.041Z,6.90
2022-08-27T12:20:22.633Z,6.80
2022-08-27T12:23:17.940Z,7.60
2022-08-27T12:25:54.473Z,7.00
2022-08-27T12:28:26.547Z,7.23
2022-08-27T12:30:56.337Z,7.10
2022-08-27T12:36:15.465Z,6.97
2022-08-27T12:38:50.340Z,13.10
2022-08-27T12:41:25.196Z,6.23
2022-08-27T12:44:01.825Z,6.87
2022-08-27T12:46:29.693Z,6.57
2022-08-27T12:48:59.188Z,5.30
2022-08-27T12:51:37.994Z,5.83
2022-08-27T12:54:07.076Z,6.33
2022-08-27T12:56:44.783Z,5.93
2022-08-27T12:59:18.625Z,6.17
2022-08-27T13:01:47.761Z,6.90
2022-08-27T13:04:21.939Z,6.40
2022-08-27T13:06:48.608Z,7.30
2022-08-27T13:09:14.883Z,6.90
2022-08-27T13:11:46.150Z,9.23
2022-08-27T13:14:14.556Z,7.30
2022-08-27T13:16:51.436Z,6.93
2022-08-27T13:19:28.483Z,6.60
2022-08-27T13:21:55.230Z,6.67
2022-08-27T13:24:27.724Z,7.17
2022-08-27T13:26:54.636Z,7.43
2022-08-27T13:29:21.165Z,7.40
2022-08-27T13:31:49.331Z,7.03
2022-08-27T13:34:19.636Z,7.40
2022-08-27T13:37:06.066Z,7.30
2022-08-27T13:39:33.616Z,7.60
2022-08-27T13:42:00.666Z,8.67
2022-08-27T13:44:31.480Z,8.03
2022-08-27T13:47:09.131Z,7.60
2022-08-27T13:49:40.148Z,7.77
2022-08-27T13:52:12.929Z,8.00
2022-08-27T13:54:39.257Z,8.17
2022-08-27T13:57:08.777Z,8.13
2022-08-27T13:59:40.197Z,8.93
2022-08-27T14:02:29.647Z,9.17
2022-08-27T14:05:16.131Z,8.93
2022-08-27T14:07:49.964Z,9.83
2022-08-27T14:10:19.360Z,15.20
2022-08-27T14:12:47.237Z,10.23
2022-08-27T14:15:32.303Z,7.20
2022-08-27T14:17:58.608Z,6.77
2022-08-27T14:20:24.980Z,6.40
2022-08-27T14:22:51.299Z,6.63
2022-08-27T14:25:19.099Z,5.53
2022-08-27T14:27:54.111Z,5.93
2022-08-27T14:30:28.993Z,5.63
2022-08-27T14:32:58.407Z,5.60
2022-08-27T14:35:25.621Z,5.73
2022-08-27T14:37:53.019Z,5.80
2022-08-27T14:40:19.577Z,5.00
2022-08-27T14:42:45.939Z,5.00
2022-08-27T14:45:12.545Z,6.93
2022-08-27T14:47:39.779Z,8.30
2022-08-27T14:50:11.540Z,5.20
2022-08-27T14:52:39.818Z,5.33
2022-08-27T14:55:10.497Z,4.80
2022-08-27T14:57:37.252Z,5.03
2022-08-27T15:00:04.431Z,4.10
2022-08-27T15:02:30.745Z,13.37
2022-08-27T15:04:57.126Z,4.90
2022-08-27T15:07:23.588Z,3.60
2022-08-27T15:09:51.464Z,2.87
2022-08-27T15:12:26.584Z,2.83
2022-08-27T15:14:53.266Z,2.60
2022-08-27T15:17:34.236Z,2.90
2022-08-27T15:20:02.026Z,2.30
2022-08-27T15:22:31.990Z,2.77
2022-08-27T15:24:58.349Z,2.50
2022-08-27T15:27:37.945Z,2.47
2022-08-27T15:30:09.925Z,2.70
2022-08-27T15:32:39.303Z,2.47
2022-08-27T15:35:08.181Z,2.23
2022-08-27T15:37:34.537Z,2.20
2022-08-27T15:40:01.488Z,2.30
2022-08-27T15:42:28.175Z,2.40
2022-08-27T15:44:55.610Z,2.47
2022-08-27T15:47:22.460Z,2.90
2022-08-27T15:49:49.133Z,10.70
2022-08-27T15:52:17.285Z,32.53
2022-08-27T15:54:44.456Z,9.90
2022-08-27T15:57:11.222Z,2.40
2022-08-27T15:59:37.528Z,2.40
2022-08-27T16:02:05.619Z,2.47
2022-08-27T16:04:32.460Z,2.27
2022-08-27T16:06:58.735Z,2.30
2022-08-27T16:09:25.095Z,2.40
2022-08-27T16:11:51.392Z,2.60
2022-08-27T16:14:17.744Z,2.53
2022-08-27T16:16:45.183Z,2.60
2022-08-27T16:19:16.371Z,2.20
2022-08-27T16:21:43.120Z,2.20
2022-08-27T16:24:10.974Z,2.33
2022-08-27T16:26:37.873Z,2.37
2022-08-27T16:29:04.796Z,2.20
2022-08-27T16:31:32.698Z,2.50
2022-08-27T16:33:59.853Z,2.20
2022-08-27T16:36:26.260Z,2.90
2022-08-27T16:38:52.632Z,2.80
2022-08-27T16:41:18.924Z,3.10
2022-08-27T16:43:45.196Z,3.50
2022-08-27T16:46:11.562Z,3.13
2022-08-27T16:49:01.041Z,3.13
2022-08-27T16:51:32.673Z,3.47
2022-08-27T16:54:01.597Z,3.70
2022-08-27T16:56:28.696Z,3.40
2022-08-27T16:58:55.287Z,2.97
2022-08-27T17:01:22.647Z,3.50
2022-08-27T17:04:08.115Z,3.17
2022-08-27T17:06:37.952Z,3.37
2022-08-27T17:09:06.419Z,3.43
2022-08-27T17:11:34.468Z,2.93
2022-08-27T17:14:02.277Z,3.20
2022-08-27T17:16:29.653Z,3.27
2022-08-27T17:18:58.378Z,2.70
2022-08-27T17:21:29.688Z,2.90
2022-08-27T17:23:59.102Z,2.70
2022-08-27T17:26:25.920Z,2.50
2022-08-27T17:28:52.271Z,2.57
2022-08-27T17:31:27.126Z,10.20
2022-08-27T17:33:55.200Z,10.40
2022-08-27T17:36:22.251Z,2.93
2022-08-27T17:38:48.724Z,2.23
2022-08-27T17:41:16.693Z,2.07
2022-08-27T17:43:42.983Z,2.10
2022-08-27T17:46:09.487Z,2.40
2022-08-27T17:48:35.871Z,2.17
2022-08-27T17:51:02.163Z,2.07
2022-08-27T17:53:28.480Z,2.23
2022-08-27T17:55:54.799Z,2.17
2022-08-27T17:58:21.161Z,2.27
2022-08-27T18:00:47.626Z,2.23
2022-08-27T18:03:18.637Z,2.30
2022-08-27T18:05:46.704Z,2.30
2022-08-27T18:08:13.771Z,2.23
2022-08-27T18:10:40.713Z,2.20
2022-08-27T18:13:07.732Z,1.93
2022-08-27T18:15:35.673Z,1.97
2022-08-27T18:18:01.987Z,2.50
2022-08-27T18:20:29.604Z,2.67
2022-08-27T18:22:56.118Z,3.13
2022-08-27T18:25:26.880Z,3.53
2022-08-27T18:27:56.816Z,3.20
2022-08-27T18:30:23.949Z,13.73
2022-08-27T18:32:50.497Z,3.40
2022-08-27T18:35:19.336Z,2.80
2022-08-27T18:37:45.737Z,3.10
2022-08-27T18:40:12.643Z,2.67
2022-08-27T18:42:40.873Z,2.37
2022-08-27T18:45:08.552Z,2.87
2022-08-27T18:47:35.032Z,2.40
2022-08-27T18:50:01.324Z,2.80
2022-08-27T18:52:27.614Z,2.60
2022-08-27T18:54:54.103Z,2.77
2022-08-27T18:57:20.404Z,2.70
2022-08-27T18:59:46.948Z,3.00
2022-08-27T19:02:16.147Z,2.93
2022-08-27T19:04:42.532Z,2.93
2022-08-27T19:07:08.816Z,2.50
2022-08-27T19:09:35.157Z,2.97
2022-08-27T19:12:01.682Z,3.00
2022-08-27T19:14:27.961Z,3.20
2022-08-27T19:16:55.917Z,3.30
2022-08-27T19:19:23.280Z,3.20
2022-08-27T19:21:51.702Z,13.53
2022-08-27T19:24:18.828Z,4.67
2022-08-27T19:26:45.467Z,4.07
2022-08-27T19:29:11.773Z,3.27
2022-08-27T19:31:38.327Z,3.23
2022-08-27T19:34:05.465Z,3.30
2022-08-27T19:36:33.359Z,3.20
2022-08-27T19:38:59.860Z,3.37
2022-08-27T19:41:28.015Z,3.63
2022-08-27T19:43:54.545Z,3.53
2022-08-27T19:46:22.371Z,3.10
2022-08-27T19:48:48.739Z,3.70
2022-08-27T19:51:15.385Z,3.67
2022-08-27T19:53:41.921Z,84.67
2022-08-27T19:56:08.957Z,4.73
2022-08-27T19:58:35.617Z,3.50
2022-08-27T20:01:02.040Z,3.30
2022-08-27T20:03:28.687Z,3.40
2022-08-27T20:05:55.195Z,3.47
2022-08-27T20:08:22.477Z,3.40
2022-08-27T20:10:48.915Z,3.33
2022-08-27T20:13:15.395Z,3.60
2022-08-27T20:15:42.399Z,3.53
2022-08-27T20:18:09.114Z,3.47
2022-08-27T20:20:35.637Z,3.43
2022-08-27T20:23:05.224Z,4.03
2022-08-27T20:25:32.141Z,3.60
2022-08-27T20:27:58.485Z,3.53
2022-08-27T20:30:26.084Z,3.53
2022-08-27T20:32:52.420Z,3.40
2022-08-27T20:35:19.009Z,3.50
2022-08-27T20:37:46.118Z,3.27
2022-08-27T20:40:14.731Z,3.37
2022-08-27T20:42:41.087Z,3.40
2022-08-27T20:45:11.946Z,3.50
2022-08-27T20:47:39.294Z,3.27
2022-08-27T20:50:06.047Z,3.43
2022-08-27T20:52:32.473Z,3.37
2022-08-27T20:54:58.727Z,3.60
2022-08-27T20:57:25.077Z,3.40
2022-08-27T21:00:29.936Z,3.37
2022-08-27T21:02:56.290Z,3.70
2022-08-27T21:05:23.289Z,3.70
2022-08-27T21:07:50.792Z,3.57
2022-08-27T21:10:17.671Z,3.40
2022-08-27T21:12:44.623Z,3.90
2022-08-27T21:15:11.364Z,3.50
2022-08-27T21:17:37.681Z,3.70
2022-08-27T21:20:06.183Z,3.90
2022-08-27T21:22:32.520Z,4.23
2022-08-27T21:24:58.788Z,4.20
2022-08-27T21:27:25.064Z,3.57
2022-08-27T21:29:51.596Z,4.00
2022-08-27T21:32:18.371Z,3.63
2022-08-27T21:34:44.666Z,4.50
2022-08-27T21:37:12.124Z,4.20
2022-08-27T21:39:38.756Z,3.80
2022-08-27T21:42:05.183Z,3.70
2022-08-27T21:44:31.476Z,3.40
2022-08-27T21:46:58.092Z,3.83
2022-08-27T21:49:24.418Z,3.60
2022-08-27T21:51:50.838Z,3.67
2022-08-27T21:54:17.205Z,3.87
2022-08-27T21:56:44.499Z,4.17
2022-08-27T21:59:10.825Z,3.30
2022-08-27T22:01:37.199Z,3.67
2022-08-27T22:04:03.885Z,3.70
2022-08-27T22:06:48.940Z,3.70
2022-08-27T22:09:21.125Z,3.20
2022-08-27T22:11:47.412Z,3.43
2022-08-27T22:14:13.896Z,3.20
2022-08-27T22:16:40.233Z,3.40
2022-08-27T22:19:06.588Z,3.57
2022-08-27T22:21:46.699Z,3.77
2022-08-27T22:24:13.165Z,3.20
2022-08-27T22:26:39.580Z,3.37
2022-08-27T22:29:06.452Z,3.20
2022-08-27T22:31:32.919Z,3.40
2022-08-27T22:34:02.381Z,3.00
2022-08-27T22:36:29.316Z,3.33
2022-08-27T22:38:59.709Z,3.10
2022-08-27T22:41:30.086Z,3.20
2022-08-27T22:43:58.872Z,3.30
2022-08-27T22:46:25.186Z,3.10
2022-08-27T22:48:51.484Z,3.17
2022-08-27T22:51:17.911Z,3.10
2022-08-27T22:53:44.265Z,3.60
2022-08-27T22:56:10.592Z,3.33
2022-08-27T22:58:36.852Z,3.77
2022-08-27T23:01:03.230Z,4.47
2022-08-27T23:03:29.615Z,4.10
2022-08-27T23:05:56.068Z,3.70
2022-08-27T23:08:22.921Z,4.07
2022-08-27T23:10:49.528Z,4.10
2022-08-27T23:13:15.873Z,3.93
2022-08-27T23:15:42.275Z,3.50
2022-08-27T23:18:08.691Z,3.93
2022-08-27T23:20:35.054Z,3.80
2022-08-27T23:23:01.407Z,3.93
2022-08-27T23:25:47.806Z,3.60
2022-08-27T23:28:15.507Z,3.47
2022-08-27T23:30:42.540Z,3.80
2022-08-27T23:33:08.825Z,3.87
2022-08-27T23:35:35.280Z,3.43
2022-08-27T23:38:01.662Z,3.50
2022-08-27T23:40:28.043Z,3.87
2022-08-27T23:42:54.902Z,3.23
2022-08-27T23:45:22.748Z,3.30
2022-08-27T23:47:49.036Z,2.97
2022-08-27T23:50:15.387Z,3.60
2022-08-27T23:52:42.162Z,3.30
2022-08-27T23:55:10.367Z,3.43
2022-08-27T23:57:36.988Z,3.40
